createdAt,value
2023-08-07T00:00:24.425Z,9.50
2023-08-07T00:02:52.898Z,7.43
2023-08-07T00:05:21.115Z,9.80
2023-08-07T00:07:49.333Z,10.57
2023-08-07T00:10:17.563Z,11.83
2023-08-07T00:12:46.091Z,11.10
2023-08-07T00:15:15.639Z,10.90
2023-08-07T00:17:43.915Z,9.43
2023-08-07T00:20:12.750Z,11.17
2023-08-07T00:22:41.012Z,8.70
2023-08-07T00:25:09.546Z,7.10
2023-08-07T00:27:37.763Z,11.30
2023-08-07T00:30:06.188Z,10.03
2023-08-07T00:32:38.561Z,14.13
2023-08-07T00:35:09.136Z,19.23
2023-08-07T00:37:37.402Z,9.10
2023-08-07T00:40:05.889Z,8.37
2023-08-07T00:42:34.115Z,8.03
2023-08-07T00:45:03.209Z,8.43
2023-08-07T00:47:31.516Z,11.83
2023-08-07T00:50:01.656Z,8.30
2023-08-07T00:52:29.957Z,12.93
2023-08-07T00:54:58.258Z,12.43
2023-08-07T00:57:26.947Z,16.30
2023-08-07T00:59:55.251Z,8.63
2023-08-07T01:02:23.546Z,11.00
2023-08-07T01:04:52.284Z,9.60
2023-08-07T01:07:22.164Z,9.83
2023-08-07T01:09:50.404Z,12.20
2023-08-07T01:12:21.220Z,14.50
2023-08-07T01:14:54.002Z,8.90
2023-08-07T01:17:23.212Z,9.10
2023-08-07T01:19:52.569Z,7.77
2023-08-07T01:22:22.625Z,6.70
2023-08-07T01:24:51.915Z,12.77
2023-08-07T01:27:27.196Z,14.83
2023-08-07T01:29:58.354Z,10.80
2023-08-07T01:32:28.856Z,11.57
2023-08-07T01:34:57.304Z,10.03
2023-08-07T01:37:28.446Z,7.37
2023-08-07T01:39:57.508Z,9.00
2023-08-07T01:42:25.818Z,11.23
2023-08-07T01:44:54.059Z,20.23
2023-08-07T01:47:22.307Z,8.93
2023-08-07T01:49:50.550Z,14.17
2023-08-07T01:52:18.836Z,14.57
2023-08-07T01:54:48.405Z,9.70
2023-08-07T01:57:16.725Z,11.10
2023-08-07T01:59:45.836Z,14.63
2023-08-07T02:02:14.111Z,8.43
2023-08-07T02:04:42.379Z,11.33
2023-08-07T02:07:10.628Z,17.73
2023-08-07T02:09:38.863Z,8.50
2023-08-07T02:12:13.503Z,11.17
2023-08-07T02:14:41.715Z,8.97
2023-08-07T02:17:10.002Z,6.97
2023-08-07T02:19:38.232Z,8.53
2023-08-07T02:22:06.710Z,10.50
2023-08-07T02:24:34.935Z,7.03
2023-08-07T02:27:03.162Z,10.40
2023-08-07T02:29:35.214Z,8.30
2023-08-07T02:32:04.451Z,8.93
2023-08-07T02:34:33.024Z,9.90
2023-08-07T02:37:01.263Z,8.00
2023-08-07T02:39:29.490Z,12.60
2023-08-07T02:41:57.700Z,11.10
2023-08-07T02:44:26.008Z,5.60
2023-08-07T02:46:55.887Z,6.53
2023-08-07T02:49:25.647Z,11.60
2023-08-07T02:51:53.918Z,15.10
2023-08-07T02:54:22.187Z,7.67
2023-08-07T02:56:51.246Z,11.40
2023-08-07T02:59:20.014Z,13.03
2023-08-07T03:01:48.316Z,6.03
2023-08-07T03:04:18.290Z,16.03
2023-08-07T03:06:46.538Z,10.20
2023-08-07T03:09:14.802Z,7.47
2023-08-07T03:11:43.024Z,6.37
2023-08-07T03:14:11.238Z,8.23
2023-08-07T03:16:39.561Z,5.97
2023-08-07T03:19:07.805Z,7.33
2023-08-07T03:21:37.404Z,10.47
2023-08-07T03:24:05.807Z,12.57
2023-08-07T03:26:34.058Z,14.20
2023-08-07T03:29:02.310Z,12.60
2023-08-07T03:31:30.600Z,8.00
2023-08-07T03:33:59.521Z,10.17
2023-08-07T03:36:27.829Z,18.13
2023-08-07T03:38:57.416Z,13.90
2023-08-07T03:41:25.713Z,13.03
2023-08-07T03:43:53.930Z,8.60
2023-08-07T03:46:22.158Z,10.00
2023-08-07T03:48:50.380Z,9.17
2023-08-07T03:51:19.014Z,9.63
2023-08-07T03:53:47.332Z,11.40
2023-08-07T03:56:17.174Z,9.63
2023-08-07T03:58:45.625Z,10.97
2023-08-07T04:01:14.050Z,8.23
2023-08-07T04:03:43.590Z,7.67
2023-08-07T04:06:16.689Z,8.70
2023-08-07T04:08:48.020Z,8.00
2023-08-07T04:11:18.156Z,8.17
2023-08-07T04:13:46.367Z,7.90
2023-08-07T04:16:14.637Z,11.00
2023-08-07T04:18:43.584Z,7.60
2023-08-07T04:21:11.820Z,12.50
2023-08-07T04:23:41.646Z,7.40
2023-08-07T04:26:11.694Z,11.23
2023-08-07T04:28:41.276Z,6.10
2023-08-07T04:31:09.579Z,6.50
2023-08-07T04:33:38.175Z,10.77
2023-08-07T04:36:06.960Z,13.10
2023-08-07T04:38:35.179Z,10.73
2023-08-07T04:41:04.557Z,8.43
2023-08-07T04:43:33.401Z,6.90
2023-08-07T04:46:03.021Z,8.40
2023-08-07T04:48:32.191Z,10.73
2023-08-07T04:51:00.420Z,8.23
2023-08-07T04:53:28.674Z,11.70
2023-08-07T04:55:56.913Z,10.33
2023-08-07T04:58:25.184Z,12.53
2023-08-07T05:00:57.315Z,11.63
2023-08-07T05:03:27.932Z,12.20
2023-08-07T05:06:00.742Z,8.20
2023-08-07T05:08:29.031Z,9.03
2023-08-07T05:10:57.367Z,6.83
2023-08-07T05:13:25.598Z,9.93
2023-08-07T05:15:53.841Z,7.70
2023-08-07T05:18:22.213Z,7.70
2023-08-07T05:20:51.828Z,12.13
2023-08-07T05:23:20.076Z,9.00
2023-08-07T05:25:49.875Z,7.67
2023-08-07T05:28:18.699Z,6.73
2023-08-07T05:30:46.914Z,10.30
2023-08-07T05:33:16.705Z,12.90
2023-08-07T05:35:45.003Z,7.40
2023-08-07T05:38:14.601Z,7.93
2023-08-07T05:40:42.903Z,7.90
2023-08-07T05:43:12.136Z,6.10
2023-08-07T05:45:40.412Z,8.50
2023-08-07T05:48:10.590Z,8.97
2023-08-07T05:50:38.915Z,6.40
2023-08-07T05:53:07.136Z,10.50
2023-08-07T05:55:36.804Z,6.93
2023-08-07T05:58:05.060Z,9.00
2023-08-07T06:00:33.292Z,11.50
2023-08-07T06:03:01.574Z,10.40
2023-08-07T06:05:29.854Z,6.60
2023-08-07T06:07:58.216Z,9.60
2023-08-07T06:10:26.757Z,6.77
2023-08-07T06:12:56.425Z,7.90
2023-08-07T06:15:24.713Z,6.00
2023-08-07T06:17:53.164Z,6.83
2023-08-07T06:20:21.698Z,8.33
2023-08-07T06:22:49.933Z,7.20
2023-08-07T06:25:20.351Z,8.50
2023-08-07T06:27:48.568Z,7.37
2023-08-07T06:30:18.204Z,7.10
2023-08-07T06:32:46.488Z,10.87
2023-08-07T06:35:14.711Z,13.23
2023-08-07T06:37:42.910Z,7.93
2023-08-07T06:40:12.178Z,9.90
2023-08-07T06:42:40.863Z,12.53
2023-08-07T06:45:09.419Z,6.53
2023-08-07T06:47:39.033Z,8.23
2023-08-07T06:50:07.452Z,9.20
2023-08-07T06:52:35.681Z,12.00
2023-08-07T06:55:06.188Z,6.77
2023-08-07T06:57:34.445Z,12.33
2023-08-07T07:00:02.675Z,6.83
2023-08-07T07:02:30.927Z,7.30
2023-08-07T07:05:01.128Z,9.30
2023-08-07T07:07:29.431Z,10.77
2023-08-07T07:09:58.972Z,15.77
2023-08-07T07:12:27.223Z,7.30
2023-08-07T07:14:55.448Z,8.00
2023-08-07T07:17:24.046Z,12.30
2023-08-07T07:19:52.327Z,10.87
2023-08-07T07:22:21.907Z,8.90
2023-08-07T07:24:50.123Z,7.73
2023-08-07T07:27:18.740Z,5.10
2023-08-07T07:29:47.793Z,8.97
2023-08-07T07:32:16.158Z,7.43
2023-08-07T07:34:44.443Z,9.40
2023-08-07T07:37:15.180Z,8.07
2023-08-07T07:39:44.779Z,8.10
2023-08-07T07:42:13.040Z,6.63
2023-08-07T07:44:41.874Z,8.10
2023-08-07T07:47:13.437Z,9.50
2023-08-07T07:49:42.616Z,10.83
2023-08-07T07:52:10.837Z,15.87
2023-08-07T07:54:39.086Z,10.53
2023-08-07T07:57:09.180Z,11.40
2023-08-07T07:59:38.024Z,10.40
2023-08-07T08:02:06.462Z,10.67
2023-08-07T08:04:36.427Z,5.83
2023-08-07T08:07:04.899Z,13.00
2023-08-07T08:09:33.132Z,11.00
2023-08-07T08:12:01.374Z,7.97
2023-08-07T08:14:40.075Z,7.80
2023-08-07T08:17:15.278Z,10.53
2023-08-07T08:19:50.966Z,7.67
2023-08-07T08:22:19.976Z,8.63
2023-08-07T08:24:48.758Z,9.27
2023-08-07T08:27:18.309Z,6.93
2023-08-07T08:29:47.945Z,13.40
2023-08-07T08:32:18.457Z,14.53
2023-08-07T08:34:46.917Z,9.00
2023-08-07T08:37:15.151Z,5.77
2023-08-07T08:39:43.438Z,13.40
2023-08-07T08:42:13.838Z,7.00
2023-08-07T08:44:42.660Z,4.33
2023-08-07T08:47:13.286Z,9.27
2023-08-07T08:49:44.870Z,11.00
2023-08-07T08:52:13.160Z,8.80
2023-08-07T08:54:41.432Z,11.77
2023-08-07T08:57:09.843Z,8.93
2023-08-07T08:59:38.609Z,11.57
2023-08-07T09:02:07.383Z,10.13
2023-08-07T09:04:37.041Z,11.40
2023-08-07T09:07:05.454Z,16.93
2023-08-07T09:09:33.894Z,7.90
2023-08-07T09:12:03.056Z,6.97
2023-08-07T09:14:34.558Z,10.83
2023-08-07T09:17:03.734Z,8.10
2023-08-07T09:19:32.174Z,9.83
2023-08-07T09:22:01.788Z,8.97
2023-08-07T09:24:30.059Z,5.83
2023-08-07T09:26:59.722Z,12.60
2023-08-07T09:29:29.397Z,8.97
2023-08-07T09:31:57.761Z,7.07
2023-08-07T09:34:26.092Z,5.33
2023-08-07T09:36:55.024Z,6.93
2023-08-07T09:39:28.583Z,7.07
2023-08-07T09:41:58.180Z,5.40
2023-08-07T09:44:26.490Z,7.07
2023-08-07T09:46:55.160Z,12.90
2023-08-07T09:49:24.351Z,12.80
2023-08-07T09:51:52.573Z,8.87
2023-08-07T09:54:20.798Z,9.10
2023-08-07T09:56:51.031Z,8.60
2023-08-07T09:59:19.447Z,6.83
2023-08-07T10:01:47.805Z,5.77
2023-08-07T10:04:17.045Z,6.20
2023-08-07T10:06:46.515Z,7.37
2023-08-07T10:09:14.862Z,5.40
2023-08-07T10:11:43.958Z,8.53
2023-08-07T10:14:14.841Z,8.20
2023-08-07T10:16:43.140Z,4.80
2023-08-07T10:19:12.346Z,5.40
2023-08-07T10:21:42.204Z,4.57
2023-08-07T10:24:11.297Z,8.87
2023-08-07T10:26:42.555Z,7.53
2023-08-07T10:29:13.147Z,8.13
2023-08-07T10:31:44.014Z,4.67
2023-08-07T10:34:12.294Z,9.53
2023-08-07T10:36:41.492Z,8.10
2023-08-07T10:39:10.419Z,10.47
2023-08-07T10:41:42.204Z,7.60
2023-08-07T10:44:20.193Z,5.93
2023-08-07T10:46:53.393Z,7.10
2023-08-07T10:49:34.934Z,4.30
2023-08-07T10:52:04.907Z,4.63
2023-08-07T10:54:33.195Z,9.07
2023-08-07T10:57:02.430Z,6.90
2023-08-07T10:59:33.064Z,5.30
2023-08-07T11:02:02.714Z,12.13
2023-08-07T11:04:31.266Z,7.30
2023-08-07T11:06:59.642Z,6.77
2023-08-07T11:09:27.882Z,7.40
2023-08-07T11:11:56.101Z,7.60
2023-08-07T11:14:24.364Z,6.63
2023-08-07T11:16:52.603Z,5.10
2023-08-07T11:19:22.354Z,4.10
2023-08-07T11:21:51.808Z,5.77
2023-08-07T11:24:22.541Z,6.20
2023-08-07T11:26:51.988Z,6.13
2023-08-07T11:29:20.428Z,6.30
2023-08-07T11:31:48.711Z,7.60
2023-08-07T11:34:18.182Z,10.83
2023-08-07T11:36:48.037Z,6.77
2023-08-07T11:39:17.977Z,8.47
2023-08-07T11:41:46.724Z,8.90
2023-08-07T11:44:17.925Z,7.50
2023-08-07T11:46:46.166Z,5.40
2023-08-07T11:49:15.108Z,6.77
2023-08-07T11:51:43.546Z,5.90
2023-08-07T11:54:17.368Z,7.90
2023-08-07T11:56:45.602Z,6.07
2023-08-07T11:59:13.839Z,10.40
2023-08-07T12:01:42.829Z,7.43
2023-08-07T12:04:12.030Z,6.90
2023-08-07T12:06:41.331Z,7.30
2023-08-07T12:09:13.725Z,4.40
2023-08-07T12:11:43.684Z,7.30
2023-08-07T12:14:16.546Z,6.10
2023-08-07T12:16:47.308Z,5.73
2023-08-07T12:19:16.046Z,7.63
2023-08-07T12:21:44.575Z,6.60
2023-08-07T12:24:13.040Z,8.97
2023-08-07T12:26:42.717Z,9.00
2023-08-07T12:29:11.062Z,5.63
2023-08-07T12:31:40.293Z,9.70
2023-08-07T12:36:40.762Z,10.73
2023-08-07T12:39:09.040Z,5.30
2023-08-07T12:44:09.815Z,7.70
2023-08-07T12:46:40.177Z,8.70
2023-08-07T12:49:11.324Z,5.60
2023-08-07T12:51:39.599Z,7.73
2023-08-07T12:54:07.814Z,5.00
2023-08-07T12:56:37.087Z,4.57
2023-08-07T12:59:05.340Z,8.33
2023-08-07T13:01:35.070Z,4.67
2023-08-07T13:04:06.021Z,8.87
2023-08-07T13:06:34.404Z,5.37
2023-08-07T13:09:02.773Z,6.13
2023-08-07T13:11:31.003Z,3.60
2023-08-07T13:13:59.261Z,5.20
2023-08-07T13:16:27.500Z,6.83
2023-08-07T13:18:57.130Z,4.27
2023-08-07T13:21:25.435Z,7.00
2023-08-07T13:23:54.704Z,4.77
2023-08-07T13:26:22.958Z,4.33
2023-08-07T13:28:51.408Z,4.23
2023-08-07T13:31:19.706Z,4.00
2023-08-07T13:33:48.092Z,6.77
2023-08-07T13:36:18.161Z,4.50
2023-08-07T13:38:47.727Z,4.93
2023-08-07T13:41:17.058Z,6.73
2023-08-07T13:43:45.308Z,8.33
2023-08-07T13:46:13.881Z,5.83
2023-08-07T13:48:42.490Z,5.90
2023-08-07T13:51:10.744Z,4.50
2023-08-07T13:53:40.381Z,4.37
2023-08-07T13:56:10.004Z,4.70
2023-08-07T13:58:38.236Z,5.90
2023-08-07T14:01:06.857Z,4.67
2023-08-07T14:03:35.395Z,4.60
2023-08-07T14:06:03.671Z,3.97
2023-08-07T14:08:33.860Z,3.20
2023-08-07T14:11:03.830Z,5.23
2023-08-07T14:13:32.075Z,3.63
2023-08-07T14:16:00.349Z,3.57
2023-08-07T14:18:28.983Z,4.67
2023-08-07T14:21:02.748Z,4.83
2023-08-07T14:23:33.907Z,4.10
2023-08-07T14:26:03.906Z,3.93
2023-08-07T14:28:32.149Z,3.40
2023-08-07T14:31:01.723Z,4.37
2023-08-07T14:33:30.972Z,5.80
2023-08-07T14:35:59.222Z,3.93
2023-08-07T14:38:27.617Z,4.30
2023-08-07T14:40:55.855Z,4.80
2023-08-07T14:43:25.542Z,3.43
2023-08-07T14:45:55.956Z,3.50
2023-08-07T14:48:24.591Z,4.60
2023-08-07T14:50:53.062Z,2.97
2023-08-07T14:53:21.397Z,3.93
2023-08-07T14:55:49.753Z,4.23
2023-08-07T14:58:18.003Z,4.23
2023-08-07T15:00:47.665Z,4.10
2023-08-07T15:03:15.882Z,3.80
2023-08-07T15:05:44.145Z,3.60
2023-08-07T15:08:12.465Z,4.20
2023-08-07T15:10:42.416Z,4.37
2023-08-07T15:13:10.657Z,5.13
2023-08-07T15:15:38.871Z,4.07
2023-08-07T15:18:08.557Z,5.40
2023-08-07T15:20:37.188Z,4.60
2023-08-07T15:23:05.711Z,4.13
2023-08-07T15:25:33.961Z,3.27
2023-08-07T15:28:04.904Z,3.87
2023-08-07T15:30:33.146Z,4.23
2023-08-07T15:33:01.437Z,3.87
2023-08-07T15:35:33.265Z,4.23
2023-08-07T15:38:02.180Z,3.30
2023-08-07T15:40:30.436Z,4.80
2023-08-07T15:42:58.683Z,3.10
2023-08-07T15:45:26.921Z,4.27
2023-08-07T15:47:55.369Z,3.57
2023-08-07T15:50:23.713Z,3.53
2023-08-07T15:52:53.341Z,3.63
2023-08-07T15:55:21.600Z,5.80
2023-08-07T15:57:49.846Z,3.43
2023-08-07T16:00:18.315Z,5.37
2023-08-07T16:02:46.622Z,6.03
2023-08-07T16:05:14.898Z,5.33
2023-08-07T16:07:43.227Z,3.97
2023-08-07T16:10:12.972Z,4.30
2023-08-07T16:12:41.704Z,8.10
2023-08-07T16:15:10.780Z,6.00
2023-08-07T16:17:39.145Z,4.40
2023-08-07T16:20:07.910Z,4.07
2023-08-07T16:22:36.308Z,3.73
2023-08-07T16:25:04.926Z,3.60
2023-08-07T16:27:34.926Z,3.87
2023-08-07T16:30:05.266Z,7.87
2023-08-07T16:32:33.636Z,5.27
2023-08-07T16:35:02.281Z,3.37
2023-08-07T16:37:31.053Z,4.63
2023-08-07T16:39:59.357Z,4.10
2023-08-07T16:42:27.723Z,3.93
2023-08-07T16:44:57.375Z,3.93
2023-08-07T16:47:25.695Z,12.00
2023-08-07T16:49:53.969Z,4.03
2023-08-07T16:52:22.220Z,3.30
2023-08-07T16:54:54.160Z,4.43
2023-08-07T16:57:23.867Z,4.40
2023-08-07T16:59:52.141Z,4.00
2023-08-07T17:02:22.582Z,2.97
2023-08-07T17:04:50.881Z,3.50
2023-08-07T17:07:19.117Z,4.60
2023-08-07T17:09:47.453Z,5.90
2023-08-07T17:12:15.724Z,5.67
2023-08-07T17:14:43.978Z,4.53
2023-08-07T17:17:12.221Z,5.80
2023-08-07T17:19:41.825Z,3.30
2023-08-07T17:22:10.340Z,3.10
2023-08-07T17:24:38.621Z,4.63
2023-08-07T17:27:07.535Z,3.53
2023-08-07T17:29:35.801Z,4.03
2023-08-07T17:32:04.052Z,3.47
2023-08-07T17:34:32.307Z,3.00
2023-08-07T17:37:01.947Z,4.50
2023-08-07T17:39:30.177Z,4.00
2023-08-07T17:41:58.425Z,4.30
2023-08-07T17:44:26.646Z,2.80
2023-08-07T17:46:54.964Z,6.23
2023-08-07T17:49:23.237Z,3.83
2023-08-07T17:51:51.445Z,4.60
2023-08-07T17:54:21.070Z,3.37
2023-08-07T17:56:51.088Z,3.70
2023-08-07T17:59:19.321Z,6.10
2023-08-07T18:01:47.610Z,2.97
2023-08-07T18:04:15.953Z,7.53
2023-08-07T18:06:44.239Z,3.00
2023-08-07T18:09:13.092Z,4.73
2023-08-07T18:11:43.787Z,3.60
2023-08-07T18:14:12.064Z,4.83
2023-08-07T18:16:40.326Z,3.70
2023-08-07T18:19:08.659Z,3.90
2023-08-07T18:21:36.872Z,3.00
2023-08-07T18:24:05.247Z,2.90
2023-08-07T18:26:33.496Z,6.63
2023-08-07T18:29:03.110Z,4.70
2023-08-07T18:31:32.779Z,3.10
2023-08-07T18:34:01.423Z,3.13
2023-08-07T18:36:29.862Z,2.90
2023-08-07T18:38:58.103Z,7.67
2023-08-07T18:41:26.335Z,4.15
2023-08-07T18:43:54.564Z,3.57
2023-08-07T18:46:24.211Z,6.83
2023-08-07T18:48:52.655Z,3.57
2023-08-07T18:51:21.249Z,4.13
2023-08-07T18:53:49.645Z,3.60
2023-08-07T18:56:17.872Z,3.03
2023-08-07T18:58:46.129Z,3.97
2023-08-07T19:01:14.359Z,3.63
2023-08-07T19:03:44.206Z,3.27
2023-08-07T19:06:12.568Z,4.33
2023-08-07T19:08:41.024Z,2.90
2023-08-07T19:11:09.255Z,2.93
2023-08-07T19:13:38.362Z,4.50
2023-08-07T19:16:07.315Z,4.37
2023-08-07T19:18:35.684Z,4.30
2023-08-07T19:21:05.303Z,4.00
2023-08-07T19:23:33.699Z,4.40
2023-08-07T19:26:03.118Z,3.27
2023-08-07T19:28:31.347Z,3.20
2023-08-07T19:31:05.668Z,4.20
2023-08-07T19:33:35.168Z,3.20
2023-08-07T19:36:04.813Z,3.30
2023-08-07T19:38:33.059Z,3.33
2023-08-07T19:41:01.309Z,3.23
2023-08-07T19:43:29.699Z,3.13
2023-08-07T19:45:58.728Z,4.37
2023-08-07T19:48:27.020Z,3.20
2023-08-07T19:50:55.549Z,3.67
2023-08-07T19:53:25.297Z,4.17
2023-08-07T19:55:55.557Z,2.90
2023-08-07T19:58:23.976Z,4.30
2023-08-07T20:00:52.220Z,4.93
2023-08-07T20:03:31.904Z,3.43
2023-08-07T20:06:00.212Z,3.10
2023-08-07T20:08:29.838Z,2.73
2023-08-07T20:10:59.469Z,3.20
2023-08-07T20:13:27.761Z,2.83
2023-08-07T20:16:05.594Z,5.17
2023-08-07T20:18:33.952Z,3.80
2023-08-07T20:21:02.277Z,7.30
2023-08-07T20:23:33.038Z,5.30
2023-08-07T20:26:01.294Z,5.83
2023-08-07T20:28:29.596Z,3.13
2023-08-07T20:30:58.198Z,3.33
2023-08-07T20:33:27.727Z,4.33
2023-08-07T20:35:57.059Z,4.23
2023-08-07T20:38:25.305Z,4.70
2023-08-07T20:40:54.901Z,3.30
2023-08-07T20:43:25.420Z,3.20
2023-08-07T20:45:53.720Z,3.80
2023-08-07T20:48:22.142Z,4.67
2023-08-07T20:50:50.486Z,4.80
2023-08-07T20:53:18.869Z,8.27
2023-08-07T20:55:47.150Z,3.23
2023-08-07T20:58:16.740Z,8.00
2023-08-07T21:00:45.040Z,3.87
2023-08-07T21:03:13.304Z,4.70
2023-08-07T21:05:41.549Z,3.70
2023-08-07T21:08:09.790Z,3.20
2023-08-07T21:10:38.010Z,5.20
2023-08-07T21:13:06.438Z,3.27
2023-08-07T21:15:36.087Z,3.73
2023-08-07T21:18:04.397Z,6.00
2023-08-07T21:20:35.696Z,4.97
2023-08-07T21:23:04.984Z,4.67
2023-08-07T21:25:33.290Z,5.80
2023-08-07T21:28:01.535Z,6.60
2023-08-07T21:30:29.894Z,7.43
2023-08-07T21:32:59.508Z,3.90
2023-08-07T21:35:27.897Z,4.67
2023-08-07T21:37:56.263Z,5.27
2023-08-07T21:40:24.727Z,5.50
2023-08-07T21:42:53.019Z,4.30
2023-08-07T21:45:21.263Z,6.83
2023-08-07T21:47:49.540Z,3.93
2023-08-07T21:50:19.294Z,8.60
2023-08-07T21:52:47.517Z,6.63
2023-08-07T21:55:18.960Z,5.97
2023-08-07T21:57:47.429Z,6.80
2023-08-07T22:00:16.068Z,4.80
2023-08-07T22:02:45.115Z,6.70
2023-08-07T22:05:13.563Z,5.37
2023-08-07T22:07:44.299Z,7.80
2023-08-07T22:10:12.786Z,5.53
2023-08-07T22:12:41.073Z,5.77
2023-08-07T22:15:10.145Z,6.03
2023-08-07T22:17:38.866Z,5.43
2023-08-07T22:20:08.253Z,11.63
2023-08-07T22:22:38.340Z,7.60
2023-08-07T22:25:08.553Z,7.37
2023-08-07T22:27:36.915Z,7.13
2023-08-07T22:30:06.390Z,4.93
2023-08-07T22:32:34.737Z,6.73
2023-08-07T22:35:03.203Z,7.87
2023-08-07T22:37:31.485Z,5.77
2023-08-07T22:39:59.749Z,5.40
2023-08-07T22:42:29.597Z,7.40
2023-08-07T22:44:57.862Z,5.40
2023-08-07T22:47:26.169Z,4.60
2023-08-07T22:49:55.174Z,6.83
2023-08-07T22:52:23.407Z,5.73
2023-08-07T22:54:51.647Z,7.33
2023-08-07T22:57:19.879Z,4.80
2023-08-07T22:59:49.540Z,6.73
2023-08-07T23:02:17.801Z,5.10
2023-08-07T23:04:46.053Z,5.93
2023-08-07T23:07:14.313Z,7.90
2023-08-07T23:09:42.548Z,6.43
2023-08-07T23:12:11.036Z,4.90
2023-08-07T23:14:39.260Z,4.93
2023-08-07T23:17:09.171Z,6.37
2023-08-07T23:19:37.465Z,6.57
2023-08-07T23:22:06.065Z,4.80
2023-08-07T23:24:34.276Z,5.77
2023-08-07T23:27:02.578Z,6.40
2023-08-07T23:29:30.872Z,6.67
2023-08-07T23:31:59.412Z,6.93
2023-08-07T23:34:29.329Z,4.40
2023-08-07T23:36:57.600Z,7.27
2023-08-07T23:39:25.863Z,5.47
2023-08-07T23:41:54.164Z,11.03
2023-08-07T23:44:22.461Z,5.00
2023-08-07T23:46:50.711Z,5.63
2023-08-07T23:49:18.984Z,5.40
2023-08-07T23:51:48.573Z,5.33
2023-08-07T23:54:16.838Z,7.03
2023-08-07T23:56:45.074Z,6.93
2023-08-07T23:59:13.302Z,7.00
